sensor_id;sensor_type;location;lat;lon;timestamp;temperature;humidity
45807;DHT22;31507;51.494;7.518;2023-07-20T00:00:03;14.70;99.90
45807;DHT22;31507;51.494;7.518;2023-07-20T00:02:29;14.70;99.90
45807;DHT22;31507;51.494;7.518;2023-07-20T00:04:56;14.70;99.90
45807;DHT22;31507;51.494;7.518;2023-07-20T00:07:21;14.70;99.90
45807;DHT22;31507;51.494;7.518;2023-07-20T00:09:47;14.70;99.90
45807;DHT22;31507;51.494;7.518;2023-07-20T00:12:14;14.60;99.90
45807;DHT22;31507;51.494;7.518;2023-07-20T00:14:42;14.60;99.90
45807;DHT22;31507;51.494;7.518;2023-07-20T00:17:08;14.50;99.90
45807;DHT22;31507;51.494;7.518;2023-07-20T00:19:37;14.50;99.90
45807;DHT22;31507;51.494;7.518;2023-07-20T00:22:03;14.50;99.90
45807;DHT22;31507;51.494;7.518;2023-07-20T00:24:30;14.50;99.90
45807;DHT22;31507;51.494;7.518;2023-07-20T00:26:58;14.50;99.90
45807;DHT22;31507;51.494;7.518;2023-07-20T00:29:26;14.50;99.90
45807;DHT22;31507;51.494;7.518;2023-07-20T00:31:54;14.50;99.90
45807;DHT22;31507;51.494;7.518;2023-07-20T00:34:21;14.50;99.90
45807;DHT22;31507;51.494;7.518;2023-07-20T00:36:48;14.60;99.90
45807;DHT22;31507;51.494;7.518;2023-07-20T00:39:14;14.60;99.90
45807;DHT22;31507;51.494;7.518;2023-07-20T00:41:44;14.60;99.90
45807;DHT22;31507;51.494;7.518;2023-07-20T00:44:14;14.60;99.90
45807;DHT22;31507;51.494;7.518;2023-07-20T00:46:39;14.70;99.90
45807;DHT22;31507;51.494;7.518;2023-07-20T00:49:08;14.70;99.90
45807;DHT22;31507;51.494;7.518;2023-07-20T00:51:33;14.70;99.90
45807;DHT22;31507;51.494;7.518;2023-07-20T00:53:59;14.70;99.90
45807;DHT22;31507;51.494;7.518;2023-07-20T00:56:25;14.60;99.90
45807;DHT22;31507;51.494;7.518;2023-07-20T00:58:51;14.60;99.90
45807;DHT22;31507;51.494;7.518;2023-07-20T01:01:17;14.60;99.90
45807;DHT22;31507;51.494;7.518;2023-07-20T01:03:43;14.60;99.90
45807;DHT22;31507;51.494;7.518;2023-07-20T01:11:47;14.60;99.90
45807;DHT22;31507;51.494;7.518;2023-07-20T01:14:16;14.70;99.90
45807;DHT22;31507;51.494;7.518;2023-07-20T01:16:42;14.70;99.90
45807;DHT22;31507;51.494;7.518;2023-07-20T01:19:09;14.70;99.90
45807;DHT22;31507;51.494;7.518;2023-07-20T01:21:43;14.70;99.90
45807;DHT22;31507;51.494;7.518;2023-07-20T01:32:07;14.60;99.90
45807;DHT22;31507;51.494;7.518;2023-07-20T01:34:35;14.60;99.90
45807;DHT22;31507;51.494;7.518;2023-07-20T01:37:02;14.60;99.90
45807;DHT22;31507;51.494;7.518;2023-07-20T01:39:29;14.60;99.90
45807;DHT22;31507;51.494;7.518;2023-07-20T01:41:55;14.50;99.90
45807;DHT22;31507;51.494;7.518;2023-07-20T01:44:22;14.50;99.90
45807;DHT22;31507;51.494;7.518;2023-07-20T01:46:48;14.50;99.90
45807;DHT22;31507;51.494;7.518;2023-07-20T01:49:13;14.40;99.90
45807;DHT22;31507;51.494;7.518;2023-07-20T01:51:39;14.30;99.90
45807;DHT22;31507;51.494;7.518;2023-07-20T01:54:04;14.30;99.90
45807;DHT22;31507;51.494;7.518;2023-07-20T01:56:30;14.30;99.90
45807;DHT22;31507;51.494;7.518;2023-07-20T01:58:56;14.30;99.90
45807;DHT22;31507;51.494;7.518;2023-07-20T02:01:21;14.30;99.90
45807;DHT22;31507;51.494;7.518;2023-07-20T02:03:47;14.30;99.90
45807;DHT22;31507;51.494;7.518;2023-07-20T02:06:12;14.30;99.90
45807;DHT22;31507;51.494;7.518;2023-07-20T02:08:38;14.30;99.90
45807;DHT22;31507;51.494;7.518;2023-07-20T02:11:04;14.30;99.90
45807;DHT22;31507;51.494;7.518;2023-07-20T02:13:30;14.30;99.90
45807;DHT22;31507;51.494;7.518;2023-07-20T02:15:55;14.30;99.90
45807;DHT22;31507;51.494;7.518;2023-07-20T02:18:21;14.20;99.90
45807;DHT22;31507;51.494;7.518;2023-07-20T02:20:47;14.10;99.90
45807;DHT22;31507;51.494;7.518;2023-07-20T02:23:12;14.10;99.90
45807;DHT22;31507;51.494;7.518;2023-07-20T02:25:38;14.00;99.90
45807;DHT22;31507;51.494;7.518;2023-07-20T02:28:04;14.00;99.90
45807;DHT22;31507;51.494;7.518;2023-07-20T02:30:30;13.90;99.90
45807;DHT22;31507;51.494;7.518;2023-07-20T02:32:56;13.90;99.90
45807;DHT22;31507;51.494;7.518;2023-07-20T02:35:23;13.90;99.90
45807;DHT22;31507;51.494;7.518;2023-07-20T02:37:49;13.90;99.90
45807;DHT22;31507;51.494;7.518;2023-07-20T02:40:15;13.90;99.90
45807;DHT22;31507;51.494;7.518;2023-07-20T02:42:40;13.90;99.90
45807;DHT22;31507;51.494;7.518;2023-07-20T02:45:06;14.00;99.90
45807;DHT22;31507;51.494;7.518;2023-07-20T02:47:32;14.00;99.90
45807;DHT22;31507;51.494;7.518;2023-07-20T02:49:59;14.00;99.90
45807;DHT22;31507;51.494;7.518;2023-07-20T02:52:25;14.10;99.90
45807;DHT22;31507;51.494;7.518;2023-07-20T02:54:50;14.20;99.90
45807;DHT22;31507;51.494;7.518;2023-07-20T02:57:16;14.30;99.90
45807;DHT22;31507;51.494;7.518;2023-07-20T02:59:42;14.30;99.90
45807;DHT22;31507;51.494;7.518;2023-07-20T03:02:08;14.40;99.90
45807;DHT22;31507;51.494;7.518;2023-07-20T03:04:35;14.40;99.90
45807;DHT22;31507;51.494;7.518;2023-07-20T03:07:04;14.50;99.90
45807;DHT22;31507;51.494;7.518;2023-07-20T03:09:29;14.50;99.90
45807;DHT22;31507;51.494;7.518;2023-07-20T03:11:55;14.50;99.90
45807;DHT22;31507;51.494;7.518;2023-07-20T03:14:20;14.50;99.90
45807;DHT22;31507;51.494;7.518;2023-07-20T03:16:46;14.50;99.90
45807;DHT22;31507;51.494;7.518;2023-07-20T03:19:12;14.50;99.90
45807;DHT22;31507;51.494;7.518;2023-07-20T03:21:37;14.50;99.90
45807;DHT22;31507;51.494;7.518;2023-07-20T03:24:09;14.50;99.90
45807;DHT22;31507;51.494;7.518;2023-07-20T03:26:35;14.50;99.90
45807;DHT22;31507;51.494;7.518;2023-07-20T03:29:01;14.50;99.90
45807;DHT22;31507;51.494;7.518;2023-07-20T03:31:27;14.50;99.90
45807;DHT22;31507;51.494;7.518;2023-07-20T03:33:52;14.50;99.90
45807;DHT22;31507;51.494;7.518;2023-07-20T03:36:18;14.50;99.90
45807;DHT22;31507;51.494;7.518;2023-07-20T03:38:44;14.50;99.90
45807;DHT22;31507;51.494;7.518;2023-07-20T03:41:09;14.50;99.90
45807;DHT22;31507;51.494;7.518;2023-07-20T03:43:37;14.50;99.90
45807;DHT22;31507;51.494;7.518;2023-07-20T03:46:03;14.50;99.90
45807;DHT22;31507;51.494;7.518;2023-07-20T03:48:32;14.40;99.90
45807;DHT22;31507;51.494;7.518;2023-07-20T03:50:58;14.50;99.90
45807;DHT22;31507;51.494;7.518;2023-07-20T03:53:25;14.50;99.90
45807;DHT22;31507;51.494;7.518;2023-07-20T03:55:52;14.50;99.90
45807;DHT22;31507;51.494;7.518;2023-07-20T03:58:19;14.50;99.90
45807;DHT22;31507;51.494;7.518;2023-07-20T04:00:50;14.50;99.90
45807;DHT22;31507;51.494;7.518;2023-07-20T04:03:16;14.60;99.90
45807;DHT22;31507;51.494;7.518;2023-07-20T04:05:43;14.60;99.90
45807;DHT22;31507;51.494;7.518;2023-07-20T04:08:09;14.60;99.90
45807;DHT22;31507;51.494;7.518;2023-07-20T04:10:37;14.60;99.90
45807;DHT22;31507;51.494;7.518;2023-07-20T04:13:04;14.60;99.90
45807;DHT22;31507;51.494;7.518;2023-07-20T04:15:30;14.60;99.90
45807;DHT22;31507;51.494;7.518;2023-07-20T04:17:56;14.60;99.90
45807;DHT22;31507;51.494;7.518;2023-07-20T04:20:23;14.60;99.90
45807;DHT22;31507;51.494;7.518;2023-07-20T04:22:49;14.60;99.90
45807;DHT22;31507;51.494;7.518;2023-07-20T04:25:15;14.60;99.90
45807;DHT22;31507;51.494;7.518;2023-07-20T04:27:41;14.60;99.90
45807;DHT22;31507;51.494;7.518;2023-07-20T04:30:08;14.60;99.90
45807;DHT22;31507;51.494;7.518;2023-07-20T04:32:34;14.60;99.90
45807;DHT22;31507;51.494;7.518;2023-07-20T04:34:59;14.60;99.90
45807;DHT22;31507;51.494;7.518;2023-07-20T04:37:25;14.60;99.90
45807;DHT22;31507;51.494;7.518;2023-07-20T04:39:51;14.70;99.90
45807;DHT22;31507;51.494;7.518;2023-07-20T04:42:16;14.70;99.90
45807;DHT22;31507;51.494;7.518;2023-07-20T04:44:42;14.70;99.90
45807;DHT22;31507;51.494;7.518;2023-07-20T04:47:07;14.70;99.90
45807;DHT22;31507;51.494;7.518;2023-07-20T04:49:34;14.80;99.90
45807;DHT22;31507;51.494;7.518;2023-07-20T04:51:59;14.70;99.90
45807;DHT22;31507;51.494;7.518;2023-07-20T04:54:26;14.70;99.90
45807;DHT22;31507;51.494;7.518;2023-07-20T04:56:53;14.70;99.90
45807;DHT22;31507;51.494;7.518;2023-07-20T04:59:19;14.70;99.90
45807;DHT22;31507;51.494;7.518;2023-07-20T05:01:45;14.70;99.90
45807;DHT22;31507;51.494;7.518;2023-07-20T05:04:11;14.70;99.90
45807;DHT22;31507;51.494;7.518;2023-07-20T05:06:36;14.70;99.90
45807;DHT22;31507;51.494;7.518;2023-07-20T05:09:04;14.70;99.90
45807;DHT22;31507;51.494;7.518;2023-07-20T05:11:30;14.70;99.90
45807;DHT22;31507;51.494;7.518;2023-07-20T05:13:56;14.80;99.90
45807;DHT22;31507;51.494;7.518;2023-07-20T05:16:21;14.80;99.90
45807;DHT22;31507;51.494;7.518;2023-07-20T05:18:47;15.00;99.90
45807;DHT22;31507;51.494;7.518;2023-07-20T05:21:13;15.10;99.90
45807;DHT22;31507;51.494;7.518;2023-07-20T05:23:39;15.10;99.90
45807;DHT22;31507;51.494;7.518;2023-07-20T05:26:04;15.00;99.90
45807;DHT22;31507;51.494;7.518;2023-07-20T05:28:30;15.10;99.90
45807;DHT22;31507;51.494;7.518;2023-07-20T05:30:55;15.10;99.90
45807;DHT22;31507;51.494;7.518;2023-07-20T05:33:22;15.20;99.90
45807;DHT22;31507;51.494;7.518;2023-07-20T05:35:48;15.30;99.90
45807;DHT22;31507;51.494;7.518;2023-07-20T05:38:14;15.40;99.90
45807;DHT22;31507;51.494;7.518;2023-07-20T05:40:44;15.50;99.90
45807;DHT22;31507;51.494;7.518;2023-07-20T05:43:10;15.60;99.90
45807;DHT22;31507;51.494;7.518;2023-07-20T05:45:36;15.60;99.90
45807;DHT22;31507;51.494;7.518;2023-07-20T05:48:01;15.50;99.90
45807;DHT22;31507;51.494;7.518;2023-07-20T05:50:27;15.40;99.90
45807;DHT22;31507;51.494;7.518;2023-07-20T05:52:53;15.40;99.90
45807;DHT22;31507;51.494;7.518;2023-07-20T05:55:19;15.40;99.90
45807;DHT22;31507;51.494;7.518;2023-07-20T05:57:45;15.50;99.90
45807;DHT22;31507;51.494;7.518;2023-07-20T06:00:11;15.50;99.90
45807;DHT22;31507;51.494;7.518;2023-07-20T06:02:38;15.50;99.90
45807;DHT22;31507;51.494;7.518;2023-07-20T06:05:05;15.60;99.90
45807;DHT22;31507;51.494;7.518;2023-07-20T06:07:31;15.50;99.90
45807;DHT22;31507;51.494;7.518;2023-07-20T06:09:57;15.50;99.90
45807;DHT22;31507;51.494;7.518;2023-07-20T06:12:23;15.60;99.90
45807;DHT22;31507;51.494;7.518;2023-07-20T06:14:49;15.50;99.90
45807;DHT22;31507;51.494;7.518;2023-07-20T06:17:15;15.50;99.90
45807;DHT22;31507;51.494;7.518;2023-07-20T06:19:40;15.50;99.90
45807;DHT22;31507;51.494;7.518;2023-07-20T06:22:06;15.70;99.90
45807;DHT22;31507;51.494;7.518;2023-07-20T06:24:31;15.70;99.90
45807;DHT22;31507;51.494;7.518;2023-07-20T06:26:57;15.90;99.90
45807;DHT22;31507;51.494;7.518;2023-07-20T06:29:23;16.00;99.90
45807;DHT22;31507;51.494;7.518;2023-07-20T06:31:48;16.00;99.90
45807;DHT22;31507;51.494;7.518;2023-07-20T06:34:14;16.10;99.90
45807;DHT22;31507;51.494;7.518;2023-07-20T06:36:40;16.40;99.90
45807;DHT22;31507;51.494;7.518;2023-07-20T06:39:05;16.50;99.90
45807;DHT22;31507;51.494;7.518;2023-07-20T06:41:31;16.50;99.90
45807;DHT22;31507;51.494;7.518;2023-07-20T06:43:56;16.50;99.90
45807;DHT22;31507;51.494;7.518;2023-07-20T06:46:27;16.50;99.90
45807;DHT22;31507;51.494;7.518;2023-07-20T06:48:53;16.40;99.90
45807;DHT22;31507;51.494;7.518;2023-07-20T06:51:22;16.80;99.90
45807;DHT22;31507;51.494;7.518;2023-07-20T06:53:48;18.00;99.90
45807;DHT22;31507;51.494;7.518;2023-07-20T06:56:14;18.20;99.90
45807;DHT22;31507;51.494;7.518;2023-07-20T06:58:39;17.70;99.90
45807;DHT22;31507;51.494;7.518;2023-07-20T07:01:07;17.40;99.90
45807;DHT22;31507;51.494;7.518;2023-07-20T07:03:33;17.10;99.90
45807;DHT22;31507;51.494;7.518;2023-07-20T07:05:59;16.80;99.90
45807;DHT22;31507;51.494;7.518;2023-07-20T07:08:25;17.00;99.90
45807;DHT22;31507;51.494;7.518;2023-07-20T07:10:52;18.20;99.90
45807;DHT22;31507;51.494;7.518;2023-07-20T07:13:18;18.60;99.90
45807;DHT22;31507;51.494;7.518;2023-07-20T07:15:44;19.00;99.90
45807;DHT22;31507;51.494;7.518;2023-07-20T07:18:10;19.10;99.90
45807;DHT22;31507;51.494;7.518;2023-07-20T07:20:35;19.10;99.90
45807;DHT22;31507;51.494;7.518;2023-07-20T07:23:01;19.10;99.90
45807;DHT22;31507;51.494;7.518;2023-07-20T07:25:27;19.40;99.90
45807;DHT22;31507;51.494;7.518;2023-07-20T07:27:54;19.60;99.90
45807;DHT22;31507;51.494;7.518;2023-07-20T07:30:21;19.50;99.90
45807;DHT22;31507;51.494;7.518;2023-07-20T07:32:46;19.40;99.90
45807;DHT22;31507;51.494;7.518;2023-07-20T07:35:12;19.50;99.90
45807;DHT22;31507;51.494;7.518;2023-07-20T07:37:38;19.30;99.90
45807;DHT22;31507;51.494;7.518;2023-07-20T07:40:05;19.50;99.90
45807;DHT22;31507;51.494;7.518;2023-07-20T07:42:31;19.70;99.90
45807;DHT22;31507;51.494;7.518;2023-07-20T07:44:57;20.00;99.90
45807;DHT22;31507;51.494;7.518;2023-07-20T07:47:23;20.30;99.90
45807;DHT22;31507;51.494;7.518;2023-07-20T07:49:48;20.70;99.90
45807;DHT22;31507;51.494;7.518;2023-07-20T07:52:14;20.90;99.90
45807;DHT22;31507;51.494;7.518;2023-07-20T07:54:40;21.10;99.90
45807;DHT22;31507;51.494;7.518;2023-07-20T07:57:06;21.10;99.90
45807;DHT22;31507;51.494;7.518;2023-07-20T07:59:31;21.10;99.90
45807;DHT22;31507;51.494;7.518;2023-07-20T08:02:02;20.70;99.90
45807;DHT22;31507;51.494;7.518;2023-07-20T08:04:28;20.30;99.90
45807;DHT22;31507;51.494;7.518;2023-07-20T08:06:53;20.30;99.90
45807;DHT22;31507;51.494;7.518;2023-07-20T08:09:19;20.70;99.90
45807;DHT22;31507;51.494;7.518;2023-07-20T08:11:45;20.40;99.90
45807;DHT22;31507;51.494;7.518;2023-07-20T08:14:10;19.90;99.90
45807;DHT22;31507;51.494;7.518;2023-07-20T08:16:36;19.50;99.90
45807;DHT22;31507;51.494;7.518;2023-07-20T08:19:01;19.20;99.90
45807;DHT22;31507;51.494;7.518;2023-07-20T08:21:27;19.00;99.90
45807;DHT22;31507;51.494;7.518;2023-07-20T08:23:53;18.40;99.90
45807;DHT22;31507;51.494;7.518;2023-07-20T08:26:19;18.10;99.90
45807;DHT22;31507;51.494;7.518;2023-07-20T08:28:47;18.40;99.90
45807;DHT22;31507;51.494;7.518;2023-07-20T08:31:13;19.00;99.90
45807;DHT22;31507;51.494;7.518;2023-07-20T08:33:39;19.50;99.90
45807;DHT22;31507;51.494;7.518;2023-07-20T08:36:05;19.90;99.90
45807;DHT22;31507;51.494;7.518;2023-07-20T08:38:31;20.30;99.90
45807;DHT22;31507;51.494;7.518;2023-07-20T08:40:57;20.70;99.90
45807;DHT22;31507;51.494;7.518;2023-07-20T08:43:25;20.90;99.90
45807;DHT22;31507;51.494;7.518;2023-07-20T08:45:54;20.40;99.90
45807;DHT22;31507;51.494;7.518;2023-07-20T08:48:20;20.00;99.90
45807;DHT22;31507;51.494;7.518;2023-07-20T08:50:49;20.40;99.90
45807;DHT22;31507;51.494;7.518;2023-07-20T08:53:16;21.20;99.90
45807;DHT22;31507;51.494;7.518;2023-07-20T08:55:45;21.70;99.90
45807;DHT22;31507;51.494;7.518;2023-07-20T08:58:12;21.60;99.90
45807;DHT22;31507;51.494;7.518;2023-07-20T09:00:41;21.70;99.90
45807;DHT22;31507;51.494;7.518;2023-07-20T09:03:07;21.80;99.90
45807;DHT22;31507;51.494;7.518;2023-07-20T09:05:34;22.10;99.90
45807;DHT22;31507;51.494;7.518;2023-07-20T09:08:00;22.60;99.90
45807;DHT22;31507;51.494;7.518;2023-07-20T09:10:29;23.00;99.90
45807;DHT22;31507;51.494;7.518;2023-07-20T09:12:54;22.90;99.90
45807;DHT22;31507;51.494;7.518;2023-07-20T09:15:22;23.10;99.90
45807;DHT22;31507;51.494;7.518;2023-07-20T09:17:49;22.40;99.90
45807;DHT22;31507;51.494;7.518;2023-07-20T09:20:17;21.70;99.90
45807;DHT22;31507;51.494;7.518;2023-07-20T09:22:43;21.00;99.90
45807;DHT22;31507;51.494;7.518;2023-07-20T09:25:14;20.80;99.90
45807;DHT22;31507;51.494;7.518;2023-07-20T09:27:42;20.40;99.90
45807;DHT22;31507;51.494;7.518;2023-07-20T09:30:08;20.00;99.90
45807;DHT22;31507;51.494;7.518;2023-07-20T09:32:43;19.90;99.90
45807;DHT22;31507;51.494;7.518;2023-07-20T09:35:20;20.20;99.90
45807;DHT22;31507;51.494;7.518;2023-07-20T09:37:50;20.80;99.90
45807;DHT22;31507;51.494;7.518;2023-07-20T09:40:18;21.20;99.90
45807;DHT22;31507;51.494;7.518;2023-07-20T09:42:44;21.70;99.90
45807;DHT22;31507;51.494;7.518;2023-07-20T09:45:10;22.20;99.90
45807;DHT22;31507;51.494;7.518;2023-07-20T09:47:37;22.70;99.90
45807;DHT22;31507;51.494;7.518;2023-07-20T09:50:08;22.70;99.20
45807;DHT22;31507;51.494;7.518;2023-07-20T09:52:41;23.40;97.80
45807;DHT22;31507;51.494;7.518;2023-07-20T09:55:08;23.50;96.20
45807;DHT22;31507;51.494;7.518;2023-07-20T09:57:35;22.80;97.40
45807;DHT22;31507;51.494;7.518;2023-07-20T10:00:02;21.90;98.70
45807;DHT22;31507;51.494;7.518;2023-07-20T10:02:33;21.20;99.90
45807;DHT22;31507;51.494;7.518;2023-07-20T10:05:02;20.80;99.90
45807;DHT22;31507;51.494;7.518;2023-07-20T10:07:30;20.40;99.90
45807;DHT22;31507;51.494;7.518;2023-07-20T10:09:59;20.70;99.90
45807;DHT22;31507;51.494;7.518;2023-07-20T10:12:25;21.40;99.20
45807;DHT22;31507;51.494;7.518;2023-07-20T10:15:07;22.00;96.90
45807;DHT22;31507;51.494;7.518;2023-07-20T10:17:35;22.60;91.50
45807;DHT22;31507;51.494;7.518;2023-07-20T10:20:02;22.50;88.10
45807;DHT22;31507;51.494;7.518;2023-07-20T10:22:35;22.60;92.90
45807;DHT22;31507;51.494;7.518;2023-07-20T10:25:01;22.60;92.90
45807;DHT22;31507;51.494;7.518;2023-07-20T10:27:30;22.60;91.80
45807;DHT22;31507;51.494;7.518;2023-07-20T10:29:57;23.00;93.50
45807;DHT22;31507;51.494;7.518;2023-07-20T10:32:24;23.50;92.50
45807;DHT22;31507;51.494;7.518;2023-07-20T10:34:51;23.80;89.40
45807;DHT22;31507;51.494;7.518;2023-07-20T10:37:50;24.00;87.00
45807;DHT22;31507;51.494;7.518;2023-07-20T10:42:59;24.90;78.80
45807;DHT22;31507;51.494;7.518;2023-07-20T10:45:51;25.00;70.80
45807;DHT22;31507;51.494;7.518;2023-07-20T10:48:22;24.60;70.50
45807;DHT22;31507;51.494;7.518;2023-07-20T10:51:13;25.00;73.60
45807;DHT22;31507;51.494;7.518;2023-07-20T10:53:40;25.40;70.30
45807;DHT22;31507;51.494;7.518;2023-07-20T10:56:08;24.50;74.00
45807;DHT22;31507;51.494;7.518;2023-07-20T10:58:34;23.60;78.10
45807;DHT22;31507;51.494;7.518;2023-07-20T11:01:01;22.90;81.10
45807;DHT22;31507;51.494;7.518;2023-07-20T11:03:32;22.20;83.50
45807;DHT22;31507;51.494;7.518;2023-07-20T11:05:58;22.30;85.50
45807;DHT22;31507;51.494;7.518;2023-07-20T11:08:40;22.80;84.70
45807;DHT22;31507;51.494;7.518;2023-07-20T11:11:46;23.80;82.00
45807;DHT22;31507;51.494;7.518;2023-07-20T11:14:25;24.40;77.00
45807;DHT22;31507;51.494;7.518;2023-07-20T11:16:52;24.80;72.70
45807;DHT22;31507;51.494;7.518;2023-07-20T11:19:20;25.20;72.10
45807;DHT22;31507;51.494;7.518;2023-07-20T11:21:47;24.90;71.50
45807;DHT22;31507;51.494;7.518;2023-07-20T11:24:15;25.00;71.80
45807;DHT22;31507;51.494;7.518;2023-07-20T11:29:07;24.40;72.90
45807;DHT22;31507;51.494;7.518;2023-07-20T11:31:38;23.70;74.70
45807;DHT22;31507;51.494;7.518;2023-07-20T11:34:04;23.80;72.70
45807;DHT22;31507;51.494;7.518;2023-07-20T11:36:30;24.10;73.20
45807;DHT22;31507;51.494;7.518;2023-07-20T11:38:57;24.70;72.90
45807;DHT22;31507;51.494;7.518;2023-07-20T11:41:24;24.60;73.50
45807;DHT22;31507;51.494;7.518;2023-07-20T11:43:51;23.80;72.70
45807;DHT22;31507;51.494;7.518;2023-07-20T11:46:16;23.10;74.10
45807;DHT22;31507;51.494;7.518;2023-07-20T11:48:42;22.80;73.50
45807;DHT22;31507;51.494;7.518;2023-07-20T11:51:16;23.20;73.20
45807;DHT22;31507;51.494;7.518;2023-07-20T11:53:44;23.10;72.80
45807;DHT22;31507;51.494;7.518;2023-07-20T11:56:11;22.40;73.70
45807;DHT22;31507;51.494;7.518;2023-07-20T11:58:42;22.10;73.60
45807;DHT22;31507;51.494;7.518;2023-07-20T12:01:08;22.70;74.90
45807;DHT22;31507;51.494;7.518;2023-07-20T12:03:34;23.80;72.40
45807;DHT22;31507;51.494;7.518;2023-07-20T12:06:07;24.20;71.30
45807;DHT22;31507;51.494;7.518;2023-07-20T12:08:33;24.10;71.40
45807;DHT22;31507;51.494;7.518;2023-07-20T12:10:59;23.50;72.00
45807;DHT22;31507;51.494;7.518;2023-07-20T12:13:36;23.00;73.60
45807;DHT22;31507;51.494;7.518;2023-07-20T12:16:15;22.60;74.00
45807;DHT22;31507;51.494;7.518;2023-07-20T12:18:43;23.10;73.70
45807;DHT22;31507;51.494;7.518;2023-07-20T12:21:10;23.10;72.20
45807;DHT22;31507;51.494;7.518;2023-07-20T12:23:40;22.90;71.00
45807;DHT22;31507;51.494;7.518;2023-07-20T12:26:09;22.60;72.40
45807;DHT22;31507;51.494;7.518;2023-07-20T12:28:41;23.20;70.60
45807;DHT22;31507;51.494;7.518;2023-07-20T12:31:10;23.30;68.10
45807;DHT22;31507;51.494;7.518;2023-07-20T12:33:37;23.90;69.60
45807;DHT22;31507;51.494;7.518;2023-07-20T12:36:03;24.60;68.80
45807;DHT22;31507;51.494;7.518;2023-07-20T12:38:29;25.10;67.20
45807;DHT22;31507;51.494;7.518;2023-07-20T12:40:56;25.30;65.80
45807;DHT22;31507;51.494;7.518;2023-07-20T12:43:22;25.00;65.50
45807;DHT22;31507;51.494;7.518;2023-07-20T12:45:48;24.60;64.80
45807;DHT22;31507;51.494;7.518;2023-07-20T12:48:14;23.70;66.20
45807;DHT22;31507;51.494;7.518;2023-07-20T12:50:39;23.30;67.60
45807;DHT22;31507;51.494;7.518;2023-07-20T12:53:05;23.40;68.20
45807;DHT22;31507;51.494;7.518;2023-07-20T12:55:31;24.10;68.30
45807;DHT22;31507;51.494;7.518;2023-07-20T12:57:57;24.50;67.90
45807;DHT22;31507;51.494;7.518;2023-07-20T13:00:22;24.60;67.50
45807;DHT22;31507;51.494;7.518;2023-07-20T13:02:49;24.40;66.20
45807;DHT22;31507;51.494;7.518;2023-07-20T13:05:15;23.90;65.30
45807;DHT22;31507;51.494;7.518;2023-07-20T13:07:41;23.30;65.20
45807;DHT22;31507;51.494;7.518;2023-07-20T13:10:07;23.00;65.40
45807;DHT22;31507;51.494;7.518;2023-07-20T13:12:34;23.10;66.90
45807;DHT22;31507;51.494;7.518;2023-07-20T13:15:05;22.80;67.50
45807;DHT22;31507;51.494;7.518;2023-07-20T13:17:38;22.80;68.70
45807;DHT22;31507;51.494;7.518;2023-07-20T13:20:05;23.20;68.60
45807;DHT22;31507;51.494;7.518;2023-07-20T13:22:32;24.10;69.10
45807;DHT22;31507;51.494;7.518;2023-07-20T13:24:59;24.70;66.90
45807;DHT22;31507;51.494;7.518;2023-07-20T13:27:25;25.20;63.30
45807;DHT22;31507;51.494;7.518;2023-07-20T13:29:54;24.70;62.70
45807;DHT22;31507;51.494;7.518;2023-07-20T13:32:19;24.60;62.60
45807;DHT22;31507;51.494;7.518;2023-07-20T13:34:45;24.80;62.40
45807;DHT22;31507;51.494;7.518;2023-07-20T13:37:11;24.60;62.50
45807;DHT22;31507;51.494;7.518;2023-07-20T13:39:38;24.80;62.80
45807;DHT22;31507;51.494;7.518;2023-07-20T13:42:04;24.80;62.10
45807;DHT22;31507;51.494;7.518;2023-07-20T13:44:34;24.40;62.80
45807;DHT22;31507;51.494;7.518;2023-07-20T13:47:00;24.30;63.20
45807;DHT22;31507;51.494;7.518;2023-07-20T13:49:26;24.20;63.00
45807;DHT22;31507;51.494;7.518;2023-07-20T13:51:52;24.00;63.70
45807;DHT22;31507;51.494;7.518;2023-07-20T13:54:18;23.70;64.10
45807;DHT22;31507;51.494;7.518;2023-07-20T13:56:43;23.50;65.80
45807;DHT22;31507;51.494;7.518;2023-07-20T13:59:09;23.50;65.40
45807;DHT22;31507;51.494;7.518;2023-07-20T14:01:34;23.50;65.20
45807;DHT22;31507;51.494;7.518;2023-07-20T14:04:01;23.50;64.40
45807;DHT22;31507;51.494;7.518;2023-07-20T14:06:30;23.50;64.40
45807;DHT22;31507;51.494;7.518;2023-07-20T14:08:56;23.50;64.70
45807;DHT22;31507;51.494;7.518;2023-07-20T14:11:23;23.30;65.30
45807;DHT22;31507;51.494;7.518;2023-07-20T14:13:50;23.00;66.20
45807;DHT22;31507;51.494;7.518;2023-07-20T14:16:16;22.70;66.10
45807;DHT22;31507;51.494;7.518;2023-07-20T14:18:42;22.80;66.20
45807;DHT22;31507;51.494;7.518;2023-07-20T14:21:08;22.70;66.90
45807;DHT22;31507;51.494;7.518;2023-07-20T14:23:33;22.70;66.30
45807;DHT22;31507;51.494;7.518;2023-07-20T14:25:59;22.80;66.90
45807;DHT22;31507;51.494;7.518;2023-07-20T14:28:25;23.00;67.30
45807;DHT22;31507;51.494;7.518;2023-07-20T14:30:51;23.20;67.30
45807;DHT22;31507;51.494;7.518;2023-07-20T14:33:16;23.10;66.50
45807;DHT22;31507;51.494;7.518;2023-07-20T14:35:42;23.10;65.20
45807;DHT22;31507;51.494;7.518;2023-07-20T14:38:08;23.10;65.40
45807;DHT22;31507;51.494;7.518;2023-07-20T14:40:33;22.90;65.20
45807;DHT22;31507;51.494;7.518;2023-07-20T14:42:59;22.80;66.00
45807;DHT22;31507;51.494;7.518;2023-07-20T14:45:27;22.80;66.70
45807;DHT22;31507;51.494;7.518;2023-07-20T14:47:52;22.60;66.40
45807;DHT22;31507;51.494;7.518;2023-07-20T14:50:20;22.30;66.40
45807;DHT22;31507;51.494;7.518;2023-07-20T14:52:46;22.20;66.10
45807;DHT22;31507;51.494;7.518;2023-07-20T14:55:12;22.30;66.20
45807;DHT22;31507;51.494;7.518;2023-07-20T14:57:37;22.40;66.50
45807;DHT22;31507;51.494;7.518;2023-07-20T15:00:04;22.40;65.80
45807;DHT22;31507;51.494;7.518;2023-07-20T15:02:36;22.60;66.60
45807;DHT22;31507;51.494;7.518;2023-07-20T15:05:02;23.00;68.50
45807;DHT22;31507;51.494;7.518;2023-07-20T15:07:28;23.50;67.60
45807;DHT22;31507;51.494;7.518;2023-07-20T15:09:54;23.80;66.30
45807;DHT22;31507;51.494;7.518;2023-07-20T15:12:20;24.40;66.60
45807;DHT22;31507;51.494;7.518;2023-07-20T15:15:03;25.00;64.80
45807;DHT22;31507;51.494;7.518;2023-07-20T15:17:30;25.00;61.60
45807;DHT22;31507;51.494;7.518;2023-07-20T15:19:55;24.70;63.60
45807;DHT22;31507;51.494;7.518;2023-07-20T15:22:21;24.60;63.20
45807;DHT22;31507;51.494;7.518;2023-07-20T15:24:47;24.20;63.90
45807;DHT22;31507;51.494;7.518;2023-07-20T15:27:13;24.50;63.70
45807;DHT22;31507;51.494;7.518;2023-07-20T15:29:38;24.30;62.70
45807;DHT22;31507;51.494;7.518;2023-07-20T15:32:04;24.10;63.00
45807;DHT22;31507;51.494;7.518;2023-07-20T15:34:31;23.90;61.90
45807;DHT22;31507;51.494;7.518;2023-07-20T15:36:57;23.60;62.60
45807;DHT22;31507;51.494;7.518;2023-07-20T15:39:22;24.10;61.60
45807;DHT22;31507;51.494;7.518;2023-07-20T15:41:49;24.10;62.40
45807;DHT22;31507;51.494;7.518;2023-07-20T15:44:15;24.30;63.00
45807;DHT22;31507;51.494;7.518;2023-07-20T15:49:06;25.00;62.60